Atkinson, Illinois
Current Conditions -  °F | °C
As of 2:52 PM on Friday 28 Nov 2014 (Local Time) from KMLI Reporting Station
Clear Clear  
Wind Chill: 30°   Ceiling: Unl
Heat Index: 35°   Visibility: 8mi
Dew Point: 27°   Wind: 6mph
Humidity: 72%   Direction: 140°SE
Pressure: 29.91"   Gusts: NA
Location:  41.42°N, 90.02°W
Report Text: KMLI 282052Z 14005KT 8SM CLR 02/M03 A2991 RMK AO2 SLP138 T00171028 56026
Loading
Personal Weather Stations






























Interactive Weather Map New forecast layout! Learn more

10-Day Weather Forecast

Advertisements
Track Severe Weather on mobile